Time;durP1;ratioP1;P1;durP2;ratioP2;P2;SDS_P1;SDS_P2;PMS_P1;PMS_P2;Temp;Humidity;BMP_temperature;BMP_pressure;BME280_temperature;BME280_humidity;BME280_pressure;Samples;Min_cycle;Max_cycle;Signal;HPM_P1;HPM_P2
2021/11/16 00:35:16;;;;;;;61.47;24.02;;;5.90;99.90;;;;;;5117039;28;20148;-66
2021/11/16 00:37:43;;;;;;;61.67;25.45;;;5.80;99.90;;;;;;5116215;28;20063;-67
2021/11/16 00:40:16;;;;;;;61.95;26.02;;;5.80;99.90;;;;;;5116840;28;20099;-66
2021/11/16 00:42:43;;;;;;;68.47;25.85;;;5.80;99.90;;;;;;5116623;28;20094;-66
2021/11/16 00:45:10;;;;;;;62.53;24.40;;;5.80;99.90;;;;;;5132983;27;20432;-66
2021/11/16 00:47:36;;;;;;;64.03;25.20;;;5.80;99.90;;;;;;5132054;27;20024;-66
2021/11/16 00:50:04;;;;;;;64.60;23.13;;;5.80;99.90;;;;;;5116174;28;20550;-66
2021/11/16 00:52:30;;;;;;;61.47;23.65;;;5.80;99.90;;;;;;5115510;28;20508;-65
2021/11/16 00:54:55;;;;;;;55.08;24.35;;;5.80;99.90;;;;;;5116092;28;20024;-65
2021/11/16 00:57:21;;;;;;;50.88;23.85;;;5.80;99.90;;;;;;5115947;28;20074;-65
2021/11/16 00:59:47;;;;;;;53.88;23.35;;;5.80;99.90;;;;;;5115990;28;20030;-66
2021/11/16 01:02:14;;;;;;;62.15;23.98;;;5.80;99.90;;;;;;5116091;28;20092;-66
2021/11/16 01:04:41;;;;;;;50.60;21.63;;;5.70;99.90;;;;;;5115567;28;20050;-65
2021/11/16 01:07:07;;;;;;;55.00;22.60;;;5.70;99.90;;;;;;5116015;28;20431;-66
2021/11/16 01:09:33;;;;;;;55.85;22.50;;;5.70;99.90;;;;;;5115784;28;20015;-66
2021/11/16 01:11:59;;;;;;;60.03;24.08;;;5.70;99.90;;;;;;5116008;28;20028;-66
2021/11/16 01:14:24;;;;;;;54.40;21.88;;;5.70;99.90;;;;;;5115947;28;20084;-66
2021/11/16 01:16:50;;;;;;;59.83;23.00;;;5.60;99.90;;;;;;5115592;28;20122;-66
2021/11/16 01:19:15;;;;;;;51.88;20.95;;;5.60;99.90;;;;;;5115022;28;20019;-65
2021/11/16 01:21:41;;;;;;;57.38;23.15;;;5.60;99.90;;;;;;5115460;28;20042;-66
2021/11/16 01:24:07;;;;;;;54.85;22.08;;;5.60;99.90;;;;;;5114638;28;20380;-66
2021/11/16 01:26:34;;;;;;;51.90;21.30;;;5.60;99.90;;;;;;5133572;27;20482;-66
2021/11/16 01:29:01;;;;;;;55.33;21.92;;;5.60;99.90;;;;;;5135408;27;20023;-65
2021/11/16 01:31:27;;;;;;;58.28;22.15;;;5.50;99.90;;;;;;5136259;27;20401;-66
2021/11/16 01:33:58;;;;;;;56.22;21.83;;;5.60;99.90;;;;;;5136141;27;20019;-66
2021/11/16 01:36:24;;;;;;;54.95;22.48;;;5.60;99.90;;;;;;5122201;27;20024;-66
2021/11/16 01:38:52;;;;;;;56.38;23.67;;;5.50;99.90;;;;;;5115410;28;20036;-65
2021/11/16 01:41:20;;;;;;;44.88;20.77;;;5.50;99.90;;;;;;5114784;28;20023;-66
2021/11/16 01:43:46;;;;;;;53.28;23.23;;;5.50;99.90;;;;;;5115101;28;20470;-66
2021/11/16 01:46:14;;;;;;;66.25;26.75;;;5.50;99.90;;;;;;5115095;28;20034;-66
2021/11/16 01:48:48;;;;;;;52.45;23.00;;;5.40;99.90;;;;;;5115225;28;20026;-66
2021/11/16 01:51:15;;;;;;;56.67;24.90;;;5.40;99.90;;;;;;5114369;28;20491;-66
2021/11/16 01:53:41;;;;;;;64.50;24.27;;;5.40;99.90;;;;;;5115189;28;20038;-66
2021/11/16 01:56:07;;;;;;;54.92;23.23;;;5.40;99.90;;;;;;5115169;28;20032;-66
2021/11/16 01:58:33;;;;;;;61.53;25.23;;;5.40;99.90;;;;;;5114971;28;20024;-66
2021/11/16 02:01:02;;;;;;;56.13;24.60;;;5.40;99.90;;;;;;5115002;28;20127;-66
2021/11/16 02:03:28;;;;;;;62.00;23.35;;;5.40;99.90;;;;;;5114162;28;20490;-65
2021/11/16 02:06:12;;;;;;;52.65;25.42;;;5.40;99.90;;;;;;5114903;28;20023;-65
2021/11/16 02:08:38;;;;;;;56.42;24.45;;;5.40;99.90;;;;;;5114925;28;20047;-65
2021/11/16 02:11:03;;;;;;;59.50;24.95;;;5.40;99.90;;;;;;5114594;28;20035;-65
2021/11/16 02:13:30;;;;;;;55.45;22.58;;;5.40;99.90;;;;;;5113989;28;20031;-65
2021/11/16 02:15:55;;;;;;;46.60;22.80;;;5.40;99.90;;;;;;5114449;28;20024;-65
2021/11/16 02:18:21;;;;;;;53.83;24.40;;;5.40;99.90;;;;;;5114425;28;20057;-65
2021/11/16 02:20:48;;;;;;;53.45;23.27;;;5.40;99.90;;;;;;5114240;28;20032;-65
2021/11/16 02:23:15;;;;;;;55.10;25.73;;;5.40;99.90;;;;;;5114288;28;20058;-65
2021/11/16 02:25:43;;;;;;;53.47;23.63;;;5.40;99.90;;;;;;5113763;28;20076;-65
2021/11/16 02:28:09;;;;;;;58.88;24.92;;;5.40;99.90;;;;;;5114160;28;20505;-65
2021/11/16 02:30:35;;;;;;;59.30;25.50;;;5.50;99.90;;;;;;5114657;28;20027;-65
2021/11/16 02:33:01;;;;;;;54.83;23.75;;;5.40;99.90;;;;;;5114210;28;20437;-66
2021/11/16 02:35:27;;;;;;;47.13;22.45;;;5.40;99.90;;;;;;5114345;28;20024;-66
2021/11/16 02:37:55;;;;;;;43.53;21.27;;;5.50;99.90;;;;;;5113452;28;20059;-66
2021/11/16 02:40:21;;;;;;;51.08;22.02;;;5.50;99.90;;;;;;5114197;28;20501;-66
2021/11/16 02:42:48;;;;;;;43.42;20.77;;;5.50;99.90;;;;;;5114065;28;20023;-66
2021/11/16 02:45:15;;;;;;;41.55;20.08;;;5.50;99.90;;;;;;5113993;28;20020;-66
2021/11/16 02:47:41;;;;;;;46.85;21.15;;;5.50;99.90;;;;;;5114040;28;20019;-66
2021/11/16 02:50:07;;;;;;;60.10;23.48;;;5.50;99.90;;;;;;5113366;28;20012;-66
2021/11/16 02:52:33;;;;;;;50.28;22.65;;;5.50;99.90;;;;;;5114446;28;20103;-66
2021/11/16 02:54:59;;;;;;;52.95;24.80;;;5.50;99.90;;;;;;5113892;28;20055;-66
2021/11/16 02:57:24;;;;;;;49.90;24.45;;;5.50;99.90;;;;;;5113709;28;20024;-65
2021/11/16 02:59:51;;;;;;;51.05;23.60;;;5.50;99.90;;;;;;5114081;28;20071;-66
2021/11/16 03:02:16;;;;;;;46.88;23.05;;;5.40;99.90;;;;;;5113957;28;20115;-66
2021/11/16 03:04:46;;;;;;;46.65;23.23;;;5.50;99.90;;;;;;5113163;28;20056;-65
2021/11/16 03:07:30;;;;;;;49.28;21.88;;;5.50;99.90;;;;;;5113647;28;20463;-65
2021/11/16 03:09:56;;;;;;;52.22;24.17;;;5.40;99.90;;;;;;5113749;28;20027;-65
2021/11/16 03:12:26;;;;;;;45.60;21.58;;;5.50;99.90;;;;;;5113080;28;20031;-66
2021/11/16 03:14:52;;;;;;;46.65;23.00;;;5.50;99.90;;;;;;5113957;28;20026;-66
2021/11/16 03:17:17;;;;;;;51.13;23.63;;;5.50;99.90;;;;;;5113546;28;20023;-66
2021/11/16 03:19:43;;;;;;;46.53;21.55;;;5.50;99.90;;;;;;5113559;28;20020;-66
2021/11/16 03:22:09;;;;;;;42.22;20.17;;;5.50;99.90;;;;;;5113225;28;20055;-65
2021/11/16 03:24:35;;;;;;;42.63;20.52;;;5.50;99.90;;;;;;5113833;28;20482;-66
2021/11/16 03:27:07;;;;;;;44.28;22.52;;;5.50;99.90;;;;;;5113740;28;20499;-66
2021/11/16 03:29:34;;;;;;;40.50;20.73;;;5.50;99.90;;;;;;5113813;28;20123;-66
2021/11/16 03:32:09;;;;;;;44.13;21.38;;;5.50;99.90;;;;;;5113751;28;20111;-66
2021/11/16 03:34:34;;;;;;;40.42;21.23;;;5.50;99.90;;;;;;5113751;28;20051;-66
2021/11/16 03:37:00;;;;;;;44.65;21.65;;;5.50;99.90;;;;;;5112740;28;20482;-65
2021/11/16 03:39:27;;;;;;;41.58;20.98;;;5.50;99.90;;;;;;5113476;28;20024;-66
2021/11/16 03:41:53;;;;;;;43.42;21.65;;;5.50;99.90;;;;;;5113568;28;20031;-66
2021/11/16 03:44:20;;;;;;;42.53;23.17;;;5.50;99.90;;;;;;5113657;28;20045;-66
2021/11/16 03:46:45;;;;;;;47.35;23.02;;;5.40;99.90;;;;;;5113689;28;20020;-66
2021/11/16 03:49:13;;;;;;;49.63;22.00;;;5.40;99.90;;;;;;5116848;28;20466;-66
2021/11/16 03:51:40;;;;;;;40.45;21.60;;;5.40;99.90;;;;;;5116913;27;20423;-66
2021/11/16 03:54:07;;;;;;;45.28;22.50;;;5.40;99.90;;;;;;5136257;27;20497;-66
2021/11/16 03:56:32;;;;;;;43.72;22.85;;;5.40;99.90;;;;;;5126949;27;20024;-65
2021/11/16 03:58:58;;;;;;;39.20;20.73;;;5.40;99.90;;;;;;5117448;28;20034;-65
2021/11/16 04:01:24;;;;;;;34.45;20.98;;;5.40;99.90;;;;;;5117067;28;20490;-65
2021/11/16 04:03:49;;;;;;;41.05;21.52;;;5.40;99.90;;;;;;5116798;28;20072;-65
2021/11/16 04:06:16;;;;;;;39.40;22.00;;;5.40;99.90;;;;;;5117276;28;20031;-65
2021/11/16 04:08:42;;;;;;;45.10;22.45;;;5.40;99.90;;;;;;5116849;28;20421;-65
2021/11/16 04:11:08;;;;;;;40.47;20.45;;;5.40;99.90;;;;;;5123360;27;20051;-66
2021/11/16 04:13:35;;;;;;;41.75;22.63;;;5.40;99.90;;;;;;5137739;27;20132;-66
2021/11/16 04:16:02;;;;;;;44.47;20.27;;;5.40;99.90;;;;;;5137081;27;20050;-66
2021/11/16 04:18:28;;;;;;;44.45;21.88;;;5.40;99.90;;;;;;5137528;27;20027;-66
2021/11/16 04:20:55;;;;;;;34.88;19.77;;;5.40;99.90;;;;;;5137267;27;20474;-66
2021/11/16 04:23:22;;;;;;;44.97;21.48;;;5.40;99.90;;;;;;5137531;27;20023;-66
2021/11/16 04:25:49;;;;;;;40.22;20.20;;;5.40;99.90;;;;;;5137293;27;20027;-66
2021/11/16 04:28:15;;;;;;;42.42;20.88;;;5.40;99.90;;;;;;5137330;27;20037;-66
2021/11/16 04:30:43;;;;;;;35.17;18.38;;;5.40;99.90;;;;;;5136847;27;20121;-65
2021/11/16 04:33:11;;;;;;;42.10;21.38;;;5.40;99.90;;;;;;5137606;27;20511;-66
2021/11/16 04:35:36;;;;;;;33.85;18.60;;;5.40;99.90;;;;;;5137318;27;20042;-66
2021/11/16 04:38:08;;;;;;;36.50;18.77;;;5.40;99.90;;;;;;5136818;27;20035;-65
2021/11/16 04:40:38;;;;;;;36.70;19.48;;;5.50;99.90;;;;;;5136865;27;20478;-66
2021/11/16 04:43:09;;;;;;;35.47;18.77;;;5.50;99.90;;;;;;5136621;27;20405;-66
2021/11/16 04:45:36;;;;;;;46.85;20.33;;;5.50;99.90;;;;;;5136828;27;20015;-66
2021/11/16 04:48:08;;;;;;;35.85;20.30;;;5.50;99.90;;;;;;5136677;27;20470;-66
2021/11/16 04:53:49;;;;;;;42.42;20.98;;;5.50;99.90;;;;;;5136599;27;20042;-66
2021/11/16 05:04:16;;;;;;;37.53;19.50;;;5.40;99.90;;;;;;5137101;27;20386;-66
2021/11/16 05:06:43;;;;;;;39.25;20.63;;;5.40;99.90;;;;;;5136148;27;20019;-65
2021/11/16 05:09:08;;;;;;;33.42;18.27;;;5.50;99.90;;;;;;5136245;27;20392;-65
2021/11/16 05:11:34;;;;;;;37.42;20.02;;;5.50;99.90;;;;;;5136330;27;20019;-66
2021/11/16 05:14:00;;;;;;;35.03;18.98;;;5.50;99.90;;;;;;5136638;27;20467;-66
2021/11/16 05:16:26;;;;;;;37.38;20.23;;;5.50;99.90;;;;;;5136210;27;20029;-66
2021/11/16 05:18:52;;;;;;;39.92;21.85;;;5.50;99.90;;;;;;5136254;27;20027;-66
2021/11/16 05:21:18;;;;;;;37.85;20.30;;;5.50;99.90;;;;;;5136096;27;20027;-66
2021/11/16 05:23:53;;;;;;;38.30;20.10;;;5.50;99.90;;;;;;5135582;27;20028;-65
2021/11/16 05:26:20;;;;;;;37.97;20.20;;;5.50;99.90;;;;;;5136071;27;20102;-65
2021/11/16 05:28:46;;;;;;;36.13;20.20;;;5.50;99.90;;;;;;5135988;27;20094;-66
2021/11/16 05:31:13;;;;;;;39.38;21.08;;;5.50;99.90;;;;;;5136228;27;20031;-66
2021/11/16 05:33:38;;;;;;;39.10;21.08;;;5.50;99.90;;;;;;5135454;27;20035;-66
2021/11/16 05:36:04;;;;;;;36.83;19.27;;;5.50;99.90;;;;;;5136098;27;20118;-66
2021/11/16 05:38:32;;;;;;;39.25;21.45;;;5.50;99.90;;;;;;5135669;27;20573;-66
2021/11/16 05:40:58;;;;;;;40.80;21.58;;;5.50;99.90;;;;;;5135923;27;20098;-65
2021/11/16 05:43:25;;;;;;;37.67;19.38;;;5.50;99.90;;;;;;5135420;27;20437;-65
2021/11/16 05:45:51;;;;;;;41.20;22.02;;;5.50;99.90;;;;;;5135516;27;20486;-66
2021/11/16 05:48:17;;;;;;;43.50;22.52;;;5.50;99.90;;;;;;5135544;27;20034;-66
2021/11/16 05:50:43;;;;;;;37.20;20.45;;;5.60;99.90;;;;;;5135559;27;20026;-65
2021/11/16 05:53:09;;;;;;;39.55;20.73;;;5.50;99.90;;;;;;5135224;27;20067;-65
2021/11/16 05:55:36;;;;;;;43.50;22.65;;;5.50;99.90;;;;;;5135736;27;20053;-66
2021/11/16 05:58:02;;;;;;;36.40;20.35;;;5.50;99.90;;;;;;5135306;27;20045;-66
2021/11/16 06:00:28;;;;;;;44.83;23.73;;;5.40;99.90;;;;;;5135278;27;20026;-65
2021/11/16 06:02:53;;;;;;;39.30;20.27;;;5.40;99.90;;;;;;5135896;27;20064;-65
2021/11/16 06:05:20;;;;;;;39.55;20.65;;;5.40;99.90;;;;;;5134853;27;20025;-66
2021/11/16 06:07:46;;;;;;;38.55;20.35;;;5.40;99.90;;;;;;5135198;27;20011;-66
2021/11/16 06:10:12;;;;;;;36.83;20.63;;;5.50;99.90;;;;;;5134582;27;20038;-66
2021/11/16 06:12:37;;;;;;;40.47;21.00;;;5.50;99.90;;;;;;5135147;27;20016;-66
2021/11/16 06:15:05;;;;;;;39.53;21.27;;;5.50;99.90;;;;;;5134523;27;20378;-65
2021/11/16 06:17:30;;;;;;;39.15;21.52;;;5.50;99.90;;;;;;5134987;27;20024;-66
2021/11/16 06:19:58;;;;;;;43.70;21.73;;;5.50;99.90;;;;;;5134980;27;20053;-66
2021/11/16 06:22:23;;;;;;;39.75;21.42;;;5.50;99.90;;;;;;5134682;27;20064;-65
2021/11/16 06:24:49;;;;;;;46.13;23.38;;;5.50;99.90;;;;;;5134619;27;20054;-66
2021/11/16 06:27:15;;;;;;;43.78;23.33;;;5.50;99.90;;;;;;5134949;27;20016;-66
2021/11/16 06:29:41;;;;;;;50.45;27.05;;;5.50;99.90;;;;;;5134778;27;20037;-66
2021/11/16 06:32:08;;;;;;;44.83;24.75;;;5.40;99.90;;;;;;5135044;27;20137;-66
2021/11/16 06:34:35;;;;;;;44.17;23.33;;;5.30;99.90;;;;;;5134726;27;20031;-65
2021/11/16 06:37:01;;;;;;;44.72;23.92;;;5.30;99.90;;;;;;5134122;27;20114;-65
2021/11/16 06:39:27;;;;;;;48.47;26.15;;;5.40;99.90;;;;;;5134926;27;20035;-66
2021/11/16 06:41:55;;;;;;;51.30;27.13;;;5.30;99.90;;;;;;5134820;27;20027;-66
2021/11/16 06:44:21;;;;;;;48.72;23.38;;;5.20;99.90;;;;;;5133946;27;20398;-66
2021/11/16 06:46:49;;;;;;;44.72;24.25;;;5.30;99.90;;;;;;5134690;27;20027;-66
2021/11/16 06:49:15;;;;;;;47.03;24.33;;;5.30;99.90;;;;;;5134539;27;20027;-66
2021/11/16 06:51:42;;;;;;;42.35;22.55;;;5.30;99.90;;;;;;5134437;27;20034;-65
2021/11/16 06:54:27;;;;;;;53.45;26.63;;;5.30;99.90;;;;;;5133963;27;20534;-65
2021/11/16 06:56:53;;;;;;;51.50;26.70;;;5.30;99.90;;;;;;5134616;27;20051;-65
2021/11/16 06:59:22;;;;;;;47.00;24.30;;;5.30;99.90;;;;;;5134604;27;20073;-65
2021/11/16 07:01:48;;;;;;;47.63;25.92;;;5.30;99.90;;;;;;5133833;27;20095;-65
2021/11/16 07:04:14;;;;;;;43.47;24.10;;;5.30;99.90;;;;;;5134438;27;20386;-66
2021/11/16 07:06:44;;;;;;;47.08;25.52;;;5.30;99.90;;;;;;5134470;27;20026;-66
2021/11/16 07:09:12;;;;;;;48.80;25.30;;;5.30;99.90;;;;;;5134515;27;20023;-66
2021/11/16 07:11:47;;;;;;;46.95;25.10;;;5.40;99.90;;;;;;5134510;27;20033;-66
2021/11/16 07:14:15;;;;;;;51.13;25.88;;;5.40;99.90;;;;;;5133688;27;20499;-65
2021/11/16 07:16:59;;;;;;;55.97;28.60;;;5.40;99.90;;;;;;5134090;28;20393;-65
2021/11/16 07:19:43;;;;;;;51.10;27.65;;;5.40;99.90;;;;;;5134490;28;20023;-66
2021/11/16 07:22:20;;;;;;;55.10;28.92;;;5.30;99.90;;;;;;5134695;27;20038;-66
2021/11/16 07:24:50;;;;;;;57.67;31.88;;;5.30;99.90;;;;;;5138351;27;20019;-65
2021/11/16 07:27:21;;;;;;;62.65;30.20;;;5.30;99.90;;;;;;5138003;27;20023;-65
2021/11/16 07:29:54;;;;;;;52.58;28.80;;;5.20;99.90;;;;;;5138964;27;20459;-66
2021/11/16 07:32:24;;;;;;;61.90;30.05;;;5.20;99.90;;;;;;5138537;27;20023;-66
2021/11/16 07:34:51;;;;;;;58.38;31.05;;;5.20;99.90;;;;;;5138512;27;20027;-65
2021/11/16 07:37:25;;;;;;;59.30;30.02;;;5.20;99.90;;;;;;5137614;27;20031;-65
2021/11/16 07:39:57;;;;;;;55.47;29.55;;;5.20;99.90;;;;;;5138510;27;20047;-66
2021/11/16 07:42:25;;;;;;;54.83;30.35;;;5.30;99.90;;;;;;5137973;27;20027;-65
2021/11/16 07:45:04;;;;;;;62.05;31.35;;;5.30;99.90;;;;;;5138100;27;20023;-65
2021/11/16 07:47:54;;;;;;;64.45;28.98;;;5.30;99.90;;;;;;5137657;27;20355;-65
2021/11/16 07:50:31;;;;;;;60.35;29.90;;;5.30;99.90;;;;;;5137924;27;20031;-66
2021/11/16 07:53:20;;;;;;;61.95;30.45;;;5.30;99.90;;;;;;5137861;27;20016;-66
2021/11/16 07:56:26;;;;;;;51.95;28.63;;;5.30;99.90;;;;;;5138149;27;20020;-66
2021/11/16 07:59:04;;;;;;;55.28;29.08;;;5.30;99.90;;;;;;5119588;27;20436;-65
2021/11/16 08:04:26;;;;;;;58.25;29.77;;;5.40;99.90;;;;;;5137675;27;20080;-66
2021/11/16 08:09:28;;;;;;;63.15;31.80;;;5.40;99.90;;;;;;5137868;27;20463;-66
2021/11/16 08:12:24;;;;;;;56.05;30.08;;;5.40;99.90;;;;;;5137749;27;20160;-65
2021/11/16 08:15:11;;;;;;;63.72;33.08;;;5.40;99.90;;;;;;5137212;27;20113;-66
2021/11/16 08:17:39;;;;;;;58.90;31.80;;;5.40;99.90;;;;;;5137356;27;20375;-66
2021/11/16 08:20:09;;;;;;;67.32;32.08;;;5.40;99.90;;;;;;5137633;27;20023;-66
2021/11/16 08:22:35;;;;;;;62.33;30.98;;;5.40;99.90;;;;;;5137040;27;20031;-66
2021/11/16 08:25:01;;;;;;;70.10;32.20;;;5.40;99.90;;;;;;5136848;27;20031;-65
2021/11/16 08:27:45;;;;;;;66.07;32.80;;;5.40;99.90;;;;;;5137011;27;20027;-65
2021/11/16 08:30:14;;;;;;;67.05;32.50;;;5.30;99.90;;;;;;5137338;27;20106;-65
2021/11/16 08:32:43;;;;;;;63.88;29.85;;;5.30;99.90;;;;;;5137375;27;20112;-66
2021/11/16 08:35:12;;;;;;;62.70;31.75;;;5.40;99.90;;;;;;5136829;27;20023;-66
2021/11/16 08:37:39;;;;;;;64.38;33.30;;;5.40;99.90;;;;;;5136819;27;20040;-65
2021/11/16 08:40:27;;;;;;;63.38;31.00;;;5.40;99.90;;;;;;5137023;27;20019;-65
2021/11/16 08:42:54;;;;;;;61.28;30.88;;;5.40;99.90;;;;;;5136988;27;20029;-65
2021/11/16 08:45:25;;;;;;;61.42;32.00;;;5.40;99.90;;;;;;5137064;27;20023;-65
2021/11/16 08:47:54;;;;;;;61.05;32.78;;;5.40;99.90;;;;;;5137042;27;20035;-65
2021/11/16 08:50:32;;;;;;;65.10;33.63;;;5.40;99.90;;;;;;5136204;27;20023;-65
2021/11/16 08:53:00;;;;;;;62.42;32.05;;;5.40;99.90;;;;;;5136716;27;20492;-66
2021/11/16 08:55:30;;;;;;;61.38;32.75;;;5.40;99.90;;;;;;5136668;27;20471;-65
2021/11/16 08:57:57;;;;;;;60.08;31.90;;;5.40;99.90;;;;;;5136844;27;20028;-65
2021/11/16 09:00:34;;;;;;;66.50;32.78;;;5.40;99.90;;;;;;5136080;27;20038;-65
2021/11/16 09:03:12;;;;;;;59.08;30.33;;;5.40;99.90;;;;;;5136542;27;20026;-66
2021/11/16 09:05:45;;;;;;;61.75;32.38;;;5.40;99.90;;;;;;5136852;27;20486;-66
2021/11/16 09:08:15;;;;;;;67.47;33.43;;;5.50;99.90;;;;;;5136181;27;20110;-66
2021/11/16 09:10:43;;;;;;;65.47;33.65;;;5.50;99.90;;;;;;5136640;27;20027;-66
2021/11/16 09:13:12;;;;;;;60.08;32.60;;;5.50;99.90;;;;;;5136628;27;20031;-66
2021/11/16 09:15:42;;;;;;;68.22;34.30;;;5.50;99.90;;;;;;5136288;27;20031;-65
2021/11/16 09:18:28;;;;;;;61.83;33.70;;;5.40;99.90;;;;;;5136214;27;20470;-65
2021/11/16 09:21:02;;;;;;;72.97;36.40;;;5.40;99.90;;;;;;5135821;27;20031;-65
2021/11/16 09:23:35;;;;;;;61.63;32.58;;;5.40;99.90;;;;;;5136148;27;20061;-65
2021/11/16 09:26:41;;;;;;;64.95;32.38;;;5.40;99.90;;;;;;5136438;27;20083;-65
2021/11/16 09:29:12;;;;;;;62.88;31.33;;;5.40;99.90;;;;;;5095431;27;20482;-66
2021/11/16 09:31:44;;;;;;;64.88;32.80;;;5.40;99.90;;;;;;5136607;27;20377;-66
2021/11/16 09:34:12;;;;;;;69.55;33.95;;;5.40;99.90;;;;;;5135370;27;20545;-65
2021/11/16 09:36:40;;;;;;;73.35;34.50;;;5.40;99.90;;;;;;5135624;27;20092;-65
2021/11/16 09:39:17;;;;;;;72.47;34.90;;;5.40;99.90;;;;;;5135616;27;20067;-65
2021/11/16 09:41:48;;;;;;;67.32;33.33;;;5.40;99.90;;;;;;5135848;27;20027;-65
2021/11/16 09:44:17;;;;;;;68.18;33.75;;;5.40;99.90;;;;;;5135712;27;20490;-65
2021/11/16 09:47:03;;;;;;;77.63;35.42;;;5.50;99.90;;;;;;5134303;27;20466;-65
2021/11/16 09:49:51;;;;;;;67.82;33.35;;;5.50;99.90;;;;;;5135945;27;20034;-66
2021/11/16 09:52:41;;;;;;;69.60;33.90;;;5.50;99.90;;;;;;5124436;27;20036;-65
2021/11/16 09:55:11;;;;;;;70.72;32.20;;;5.50;99.90;;;;;;5135812;27;20031;-66
2021/11/16 09:57:39;;;;;;;79.13;34.33;;;5.50;99.90;;;;;;5134834;27;20023;-66
2021/11/16 10:00:12;;;;;;;69.85;35.55;;;5.50;99.90;;;;;;5135618;27;20027;-66
2021/11/16 10:02:40;;;;;;;69.97;35.00;;;5.50;99.90;;;;;;5135307;27;20019;-66
2021/11/16 10:05:18;;;;;;;70.60;34.72;;;5.50;99.90;;;;;;5135263;27;20471;-66
2021/11/16 10:07:45;;;;;;;72.38;35.85;;;5.50;99.90;;;;;;5135228;27;20488;-66
2021/11/16 10:10:11;;;;;;;70.03;34.88;;;5.50;99.90;;;;;;5134609;27;20019;-65
2021/11/16 10:12:43;;;;;;;72.72;34.72;;;5.50;99.90;;;;;;5135173;27;20037;-66
2021/11/16 10:15:13;;;;;;;71.30;33.28;;;5.50;99.90;;;;;;5135695;27;20096;-66
2021/11/16 10:17:43;;;;;;;68.25;34.53;;;5.50;99.90;;;;;;5135289;27;20096;-66
2021/11/16 10:20:11;;;;;;;63.85;32.13;;;5.60;99.90;;;;;;5135387;27;20115;-66
2021/11/16 10:22:39;;;;;;;69.47;36.60;;;5.60;99.90;;;;;;5134398;27;20027;-66
2021/11/16 10:25:17;;;;;;;62.33;31.23;;;5.50;99.90;;;;;;5135190;27;20023;-66
2021/11/16 10:27:45;;;;;;;63.15;30.55;;;5.50;99.90;;;;;;5134935;27;20463;-66
2021/11/16 10:30:10;;;;;;;68.72;32.60;;;5.60;99.90;;;;;;5135106;27;20019;-66
2021/11/16 10:32:37;;;;;;;63.20;32.30;;;5.60;99.90;;;;;;5135056;27;20023;-66
2021/11/16 10:35:15;;;;;;;58.05;30.95;;;5.50;99.90;;;;;;5134163;27;20023;-65
2021/11/16 10:37:56;;;;;;;56.85;30.33;;;5.50;99.90;;;;;;5134074;27;20031;-65
2021/11/16 10:40:25;;;;;;;54.85;28.83;;;5.50;99.90;;;;;;5134132;28;20023;-66
2021/11/16 10:42:56;;;;;;;64.75;30.42;;;5.50;99.90;;;;;;5133141;28;20096;-65
2021/11/16 10:45:25;;;;;;;60.85;31.23;;;5.50;99.90;;;;;;5133737;28;20024;-66
2021/11/16 10:47:55;;;;;;;55.55;30.08;;;5.40;99.90;;;;;;5133665;28;20062;-66
2021/11/16 10:50:21;;;;;;;59.08;28.48;;;5.50;99.90;;;;;;5133841;28;20023;-66
2021/11/16 10:53:23;;;;;;;58.03;30.45;;;5.50;99.90;;;;;;5133728;28;20526;-66
2021/11/16 10:56:00;;;;;;;57.22;28.67;;;5.50;99.90;;;;;;5090839;28;20053;-65
2021/11/16 10:58:42;;;;;;;57.78;29.40;;;5.60;99.90;;;;;;5134051;28;20011;-66
2021/11/16 11:01:13;;;;;;;52.83;28.10;;;5.60;99.90;;;;;;5133531;28;20054;-66
2021/11/16 11:03:42;;;;;;;54.22;27.52;;;5.60;99.90;;;;;;5132996;28;20028;-65
2021/11/16 11:06:22;;;;;;;55.97;27.90;;;5.60;99.90;;;;;;5133522;28;20023;-66
2021/11/16 11:08:53;;;;;;;56.08;27.98;;;5.60;99.90;;;;;;5133492;28;20045;-66
2021/11/16 11:11:33;;;;;;;56.58;28.17;;;5.60;99.90;;;;;;5133778;28;20080;-66
2021/11/16 11:14:12;;;;;;;61.33;29.58;;;5.60;99.90;;;;;;5115340;28;20498;-65
2021/11/16 11:16:53;;;;;;;55.30;30.80;;;5.60;99.90;;;;;;5122711;28;20035;-64
2021/11/16 11:19:25;;;;;;;52.08;28.40;;;5.60;99.90;;;;;;5119851;28;20023;-65
2021/11/16 11:21:58;;;;;;;57.95;29.73;;;5.60;99.90;;;;;;5121302;28;20034;-65
2021/11/16 11:24:38;;;;;;;57.42;28.38;;;5.60;99.90;;;;;;5123180;28;20020;-66
2021/11/16 11:29:56;;;;;;;57.33;29.77;;;5.50;99.90;;;;;;5124143;28;20031;-66
2021/11/16 11:32:28;;;;;;;57.58;30.08;;;5.50;99.90;;;;;;5123720;28;20024;-66
2021/11/16 11:35:00;;;;;;;63.53;31.80;;;5.50;99.90;;;;;;5120568;28;20039;-66
2021/11/16 11:37:36;;;;;;;56.90;27.92;;;5.40;99.90;;;;;;5085999;28;1103833;-66
2021/11/16 11:40:05;;;;;;;53.05;26.85;;;5.40;99.90;;;;;;5124445;28;20541;-66
2021/11/16 11:42:33;;;;;;;54.38;28.95;;;5.50;99.90;;;;;;5123771;28;20063;-66
2021/11/16 11:45:08;;;;;;;52.22;27.33;;;5.50;99.90;;;;;;5121936;28;20110;-66
2021/11/16 11:47:36;;;;;;;60.83;28.27;;;5.50;99.90;;;;;;5122210;28;20023;-66
2021/11/16 11:50:29;;;;;;;53.83;28.88;;;5.50;99.90;;;;;;5122157;28;20470;-66
2021/11/16 11:52:57;;;;;;;60.60;29.90;;;5.40;99.90;;;;;;5121905;28;20493;-66
2021/11/16 11:55:23;;;;;;;53.75;28.92;;;5.40;99.90;;;;;;5122115;28;20031;-66
2021/11/16 11:57:49;;;;;;;53.78;28.83;;;5.40;99.90;;;;;;5122119;28;20475;-66
2021/11/16 12:00:15;;;;;;;59.70;30.33;;;5.40;99.90;;;;;;5124765;28;20035;-65
2021/11/16 12:02:43;;;;;;;58.78;28.27;;;5.40;99.90;;;;;;5124957;28;20128;-66
2021/11/16 12:05:09;;;;;;;59.00;29.25;;;5.40;99.90;;;;;;5133317;28;20120;-65
2021/11/16 12:07:35;;;;;;;61.92;30.33;;;5.50;99.90;;;;;;5133829;27;20069;-66
2021/11/16 12:10:00;;;;;;;58.22;29.27;;;5.50;99.90;;;;;;5136985;27;20023;-65
2021/11/16 12:12:26;;;;;;;56.97;28.85;;;5.40;99.90;;;;;;5137605;27;20019;-66
2021/11/16 12:15:07;;;;;;;60.60;28.70;;;5.40;99.90;;;;;;5136863;27;20067;-65
2021/11/16 12:17:54;;;;;;;56.13;29.27;;;5.40;99.90;;;;;;5137263;27;20028;-66
2021/11/16 12:20:42;;;;;;;61.10;29.08;;;5.40;99.90;;;;;;5137536;27;20027;-65
2021/11/16 12:23:11;;;;;;;53.17;26.55;;;5.40;99.90;;;;;;5137000;27;20092;-65
2021/11/16 12:25:38;;;;;;;55.85;28.35;;;5.30;99.90;;;;;;5137219;27;20386;-66
2021/11/16 12:28:23;;;;;;;54.08;26.85;;;5.30;99.90;;;;;;5137008;27;20035;-65
2021/11/16 12:30:49;;;;;;;59.85;30.83;;;5.30;99.90;;;;;;5136598;27;20066;-66
2021/11/16 12:33:51;;;;;;;55.42;30.08;;;5.30;99.90;;;;;;5137042;27;20061;-66
2021/11/16 12:36:31;;;;;;;62.40;29.73;;;5.30;99.90;;;;;;5053723;28;20029;-66
2021/11/16 12:39:11;;;;;;;57.55;28.75;;;5.20;99.90;;;;;;5129339;27;20051;-66
2021/11/16 12:41:40;;;;;;;53.92;29.20;;;5.30;99.90;;;;;;5137146;27;20083;-66
2021/11/16 12:44:17;;;;;;;58.80;27.88;;;5.30;99.90;;;;;;5136343;27;20485;-65
2021/11/16 12:46:45;;;;;;;57.50;29.23;;;5.30;99.90;;;;;;5137441;27;20018;-66
2021/11/16 12:49:41;;;;;;;61.50;29.05;;;5.30;99.90;;;;;;5136878;27;20034;-65
2021/11/16 12:52:10;;;;;;;54.08;28.20;;;5.30;99.90;;;;;;5128282;27;20035;-65
2021/11/16 12:54:36;;;;;;;56.03;30.30;;;5.30;99.90;;;;;;5136729;27;20545;-66
2021/11/16 12:57:10;;;;;;;59.25;28.48;;;5.30;99.90;;;;;;5136278;27;20027;-65
2021/11/16 12:59:44;;;;;;;62.35;29.60;;;5.20;99.90;;;;;;5136924;27;20054;-65
2021/11/16 13:02:26;;;;;;;65.13;29.80;;;5.20;99.90;;;;;;5136759;27;20019;-65
2021/11/16 13:04:55;;;;;;;53.00;28.25;;;5.20;99.90;;;;;;5136451;27;20470;-66
2021/11/16 13:07:31;;;;;;;59.65;29.55;;;5.20;99.90;;;;;;5136126;27;20046;-66
2021/11/16 13:10:05;;;;;;;60.13;30.58;;;5.20;99.90;;;;;;5136765;27;20016;-66
2021/11/16 13:12:33;;;;;;;62.90;30.83;;;5.30;99.90;;;;;;5136453;27;20019;-66
2021/11/16 13:15:10;;;;;;;55.75;28.75;;;5.20;99.90;;;;;;5136048;27;20065;-65
2021/11/16 13:17:51;;;;;;;63.75;29.52;;;5.20;99.90;;;;;;5136485;27;20031;-66
2021/11/16 13:20:39;;;;;;;67.60;30.55;;;5.20;99.90;;;;;;5135385;27;20027;-66
2021/11/16 13:23:19;;;;;;;57.63;27.42;;;5.30;99.90;;;;;;5136749;27;20359;-66
2021/11/16 13:25:54;;;;;;;59.67;29.27;;;5.20;99.90;;;;;;5135677;27;20019;-65
2021/11/16 13:31:12;;;;;;;58.50;29.77;;;5.10;99.90;;;;;;5136477;27;20027;-66
2021/11/16 13:33:53;;;;;;;62.85;31.55;;;5.00;99.90;;;;;;5136095;27;20075;-65
2021/11/16 13:36:24;;;;;;;57.15;27.67;;;5.10;99.90;;;;;;5136003;27;20027;-66
2021/11/16 13:38:58;;;;;;;57.25;29.38;;;5.00;99.90;;;;;;5143178;22;20051;-76
2021/11/16 13:42:05;;;;;;;62.72;28.92;;;5.00;99.90;;;;;;5115192;28;20027;-76
2021/11/16 13:44:56;;;;;;;60.55;29.48;;;5.00;99.90;;;;;;5072428;28;20119;-76
2021/11/16 13:47:44;;;;;;;58.50;29.05;;;5.00;99.90;;;;;;5111384;28;20038;-76
2021/11/16 13:50:11;;;;;;;59.05;28.48;;;5.00;99.90;;;;;;5115670;28;20550;-76